Main page
METAR-TAF:

METAR-TAF

Airports :

Dhahran, Saudi Arabia

King Abdulaziz Air Base

latitude: 26-16N, longitude: 050-09E, elevation: 26 m

Current weather observation

The report was made 27 minutes ago, at 16:00 UTC
Wind 7 kt from the Northwest
Temperature 19°C
Humidity 73%
Pressure 1021 hPa
Visibility 10 km or more
no clouds below 1500 m and no cumulonimbus

METAR: OEDR 181600Z 32007KT CAVOK 19/14 Q1021 NOSIG

Time: 19:27 (16:27 UTC)

Forecast

The report was made 7 hours and 27 minutes ago, at 09:00 UTC
Forecast valid from 18 at 12 UTC to 19 at 18 UTC
Wind 12 kt from the North/Northwest
Visibility 10 km or more
no clouds below 1500 m and no cumulonimbus
Becoming
from 18 at 18 UTC to 18 at 20 UTC
Wind 8 kt from the West/Northwest
Visibility: 8000 m

TAF: OEDR 180900Z 1812/1918 34012KT CAVOK BECMG 1818/1820 30008KT 8000

Weather observations and forecasts of more than 4000 airports (METAR and TAF reports).

The available stations are represented by yellow and red dots on the map.

Hover mouse over dot to see the name of the station.

Then click to see weather observations and forecasts.

To change the map : click on the green buttons with a black cross to zoom in, on the green button with a dash to zoom out, or on the green arrows for adjacent maps.


METAR-TAF: